Time;durP1;ratioP1;P1;durP2;ratioP2;P2;SDS_P1;SDS_P2;PMS_P1;PMS_P2;Temp;Humidity;BMP_temperature;BMP_pressure;BME280_temperature;BME280_humidity;BME280_pressure;Samples;Min_cycle;Max_cycle;Signal;HPM_P1;HPM_P2
2023/03/24 00:02:16;;;;;;;5.22;3.72;;;;;;;;;;4991589;28;20027;-78
2023/03/24 00:04:42;;;;;;;8.73;3.78;;;;;;;;;;4989560;28;20028;-77
2023/03/24 00:07:14;;;;;;;6.68;3.67;;;;;;;;;;4990017;28;20117;-77
2023/03/24 00:09:43;;;;;;;5.07;3.40;;;;;;;;;;4991406;28;20026;-77
2023/03/24 00:12:10;;;;;;;7.07;4.28;;;;;;;;;;4989775;28;20597;-77
2023/03/24 00:14:39;;;;;;;6.47;4.15;;;;;;;;;;4991944;28;20133;-77
2023/03/24 00:17:12;;;;;;;4.55;3.47;;;;;;;;;;4991954;28;20042;-77
2023/03/24 00:19:38;;;;;;;9.20;4.40;;;;;;;;;;4991058;28;20050;-77
2023/03/24 00:22:08;;;;;;;5.60;3.63;;;;;;;;;;4991264;28;20034;-76
2023/03/24 00:24:34;;;;;;;8.00;4.15;;;;;;;;;;4990698;28;20042;-77
2023/03/24 00:27:02;;;;;;;7.35;3.83;;;;;;;;;;4991983;28;20022;-78
2023/03/24 00:29:28;;;;;;;8.95;4.35;;;;;;;;;;4990814;28;20145;-78
2023/03/24 00:31:54;;;;;;;8.48;3.53;;;;;;;;;;4992205;28;20057;-77
2023/03/24 00:34:22;;;;;;;7.25;3.95;;;;;;;;;;4990253;28;20459;-77
2023/03/24 00:36:50;;;;;;;7.38;4.90;;;;;;;;;;4991449;28;20041;-77
2023/03/24 00:39:17;;;;;;;11.38;4.40;;;;;;;;;;4986871;28;20042;-77
2023/03/24 00:41:44;;;;;;;10.20;4.35;;;;;;;;;;4973426;28;20027;-77
2023/03/24 00:44:18;;;;;;;8.90;4.20;;;;;;;;;;4977142;28;20042;-78
2023/03/24 00:46:54;;;;;;;7.40;3.92;;;;;;;;;;4985578;28;20038;-77
2023/03/24 00:49:43;;;;;;;5.38;4.03;;;;;;;;;;4971753;28;20081;-77
2023/03/24 00:52:16;;;;;;;12.48;4.60;;;;;;;;;;4970327;28;20483;-76
2023/03/24 00:54:44;;;;;;;6.38;4.15;;;;;;;;;;4970538;28;20034;-75
2023/03/24 00:57:20;;;;;;;6.32;4.03;;;;;;;;;;4970203;28;20027;-76
2023/03/24 00:59:47;;;;;;;7.70;4.50;;;;;;;;;;4971894;28;20038;-77
2023/03/24 01:02:15;;;;;;;6.72;3.70;;;;;;;;;;4969961;28;20031;-77
2023/03/24 01:04:44;;;;;;;8.38;4.70;;;;;;;;;;4971544;28;20521;-77
2023/03/24 01:07:10;;;;;;;12.18;4.40;;;;;;;;;;4969894;28;20484;-77
2023/03/24 01:09:36;;;;;;;5.93;3.80;;;;;;;;;;4970356;28;20121;-76
2023/03/24 01:12:05;;;;;;;6.30;3.97;;;;;;;;;;4970247;28;20398;-77
2023/03/24 01:14:32;;;;;;;8.43;3.70;;;;;;;;;;4971676;28;20182;-76
2023/03/24 01:16:58;;;;;;;7.75;4.45;;;;;;;;;;4970531;28;20125;-76
2023/03/24 01:19:24;;;;;;;6.10;3.78;;;;;;;;;;4970504;28;20058;-75
2023/03/24 01:21:53;;;;;;;7.55;3.63;;;;;;;;;;4970874;28;20125;-77
2023/03/24 01:24:19;;;;;;;9.88;4.20;;;;;;;;;;4972590;28;20129;-77
2023/03/24 01:26:45;;;;;;;5.97;3.80;;;;;;;;;;4980897;28;20399;-76
2023/03/24 01:29:11;;;;;;;5.88;3.47;;;;;;;;;;4978677;28;20049;-76
2023/03/24 01:31:36;;;;;;;5.63;3.80;;;;;;;;;;4989381;28;20034;-75
2023/03/24 01:34:02;;;;;;;9.57;3.85;;;;;;;;;;4972973;28;20034;-76
2023/03/24 01:36:28;;;;;;;7.55;4.35;;;;;;;;;;4972979;28;20030;-76
2023/03/24 01:38:57;;;;;;;11.13;4.15;;;;;;;;;;4976379;28;20065;-75
2023/03/24 01:41:23;;;;;;;8.13;3.75;;;;;;;;;;4994010;28;20091;-76
2023/03/24 01:43:48;;;;;;;11.55;4.25;;;;;;;;;;4992468;28;20475;-79
2023/03/24 01:46:21;;;;;;;5.80;3.55;;;;;;;;;;4993693;28;20380;-76
2023/03/24 01:49:03;;;;;;;7.60;3.83;;;;;;;;;;4990101;28;20037;-77
2023/03/24 01:51:51;;;;;;;6.60;3.65;;;;;;;;;;4989815;28;20064;-77
2023/03/24 01:54:21;;;;;;;7.00;3.95;;;;;;;;;;5005092;28;20034;-76
2023/03/24 01:56:51;;;;;;;5.45;3.65;;;;;;;;;;4990520;28;20533;-77
2023/03/24 01:59:22;;;;;;;6.15;3.72;;;;;;;;;;4989513;28;20026;-77
2023/03/24 02:01:48;;;;;;;4.53;3.33;;;;;;;;;;4990247;28;20654;-77
2023/03/24 02:04:14;;;;;;;7.63;3.47;;;;;;;;;;4991624;28;20662;-76
2023/03/24 02:06:42;;;;;;;6.78;3.47;;;;;;;;;;4992382;28;20474;-78
2023/03/24 02:09:11;;;;;;;5.50;3.67;;;;;;;;;;4990311;28;20022;-77
2023/03/24 02:11:39;;;;;;;8.27;3.40;;;;;;;;;;4992195;28;20030;-78
2023/03/24 02:14:07;;;;;;;7.45;3.95;;;;;;;;;;4993341;28;20176;-74
2023/03/24 02:17:12;;;;;;;5.50;3.22;;;;;;;;;;4991734;28;20094;-77
2023/03/24 02:19:46;;;;;;;8.98;3.72;;;;;;;;;;4991965;28;20056;-76
2023/03/24 02:22:30;;;;;;;8.40;3.55;;;;;;;;;;4991702;28;20026;-75
2023/03/24 02:25:17;;;;;;;5.35;3.08;;;;;;;;;;4988272;28;20038;-76
2023/03/24 02:27:46;;;;;;;5.93;3.70;;;;;;;;;;4992468;28;20027;-77
2023/03/24 02:30:43;;;;;;;5.45;3.05;;;;;;;;;;4992026;28;20077;-76
2023/03/24 02:33:47;;;;;;;6.13;3.45;;;;;;;;;;4995250;28;20038;-76
2023/03/24 02:36:40;;;;;;;6.75;3.50;;;;;;;;;;4993687;28;20470;-77
2023/03/24 02:39:11;;;;;;;4.15;2.90;;;;;;;;;;4992310;28;20022;-76
2023/03/24 02:41:43;;;;;;;9.18;3.33;;;;;;;;;;4992098;28;20061;-77
2023/03/24 02:44:53;;;;;;;5.25;2.85;;;;;;;;;;4992121;28;20034;-76
2023/03/24 02:47:34;;;;;;;4.82;2.70;;;;;;;;;;5007988;28;20081;-76
2023/03/24 02:50:38;;;;;;;4.78;2.70;;;;;;;;;;5008455;28;20422;-77
2023/03/24 02:53:28;;;;;;;3.78;2.50;;;;;;;;;;4971247;28;20038;-78
2023/03/24 02:55:58;;;;;;;5.05;2.67;;;;;;;;;;4992367;28;20655;-77
2023/03/24 02:58:36;;;;;;;4.78;2.95;;;;;;;;;;4992894;28;20100;-77
2023/03/24 03:01:12;;;;;;;13.73;3.47;;;;;;;;;;5009768;28;20030;-77
2023/03/24 03:03:45;;;;;;;5.30;2.90;;;;;;;;;;5005454;28;20090;-76
2023/03/24 03:06:16;;;;;;;7.22;3.15;;;;;;;;;;5003476;28;20026;-77
2023/03/24 03:08:46;;;;;;;5.25;2.78;;;;;;;;;;4993225;28;20018;-77
2023/03/24 03:11:14;;;;;;;4.50;2.65;;;;;;;;;;5007876;28;20030;-77
2023/03/24 03:13:47;;;;;;;6.65;2.20;;;;;;;;;;5007781;28;20084;-77
2023/03/24 03:16:37;;;;;;;3.67;2.70;;;;;;;;;;4991583;28;20109;-77
2023/03/24 03:19:08;;;;;;;5.13;2.90;;;;;;;;;;5007779;28;20070;-77
2023/03/24 03:21:40;;;;;;;7.65;2.70;;;;;;;;;;4993416;28;20018;-77
2023/03/24 03:24:08;;;;;;;;;;;;;;;;;;4993759;28;20041;-78
2023/03/24 03:26:34;;;;;;;4.72;2.72;;;;;;;;;;5008652;28;19913;-78
2023/03/24 03:29:15;;;;;;;3.42;2.58;;;;;;;;;;5007894;28;20129;-77
2023/03/24 03:31:51;;;;;;;4.47;2.58;;;;;;;;;;5007630;28;20046;-77
2023/03/24 03:34:49;;;;;;;4.10;2.95;;;;;;;;;;4992859;28;20030;-77
2023/03/24 03:37:49;;;;;;;5.47;3.13;;;;;;;;;;4990719;28;20034;-77
2023/03/24 03:40:31;;;;;;;4.07;2.50;;;;;;;;;;4949996;28;20034;-76
2023/03/24 03:42:57;;;;;;;5.70;2.40;;;;;;;;;;4974847;28;20022;-78
2023/03/24 03:45:23;;;;;;;2.90;2.20;;;;;;;;;;4975227;28;20501;-78
2023/03/24 03:47:49;;;;;;;4.55;2.45;;;;;;;;;;4979714;28;20534;-77
2023/03/24 03:50:15;;;;;;;7.25;3.05;;;;;;;;;;4988776;28;20026;-75
2023/03/24 03:52:43;;;;;;;4.40;2.50;;;;;;;;;;4972098;28;20066;-76
2023/03/24 03:55:11;;;;;;;4.43;2.90;;;;;;;;;;4988094;28;20026;-77
2023/03/24 03:57:38;;;;;;;5.90;2.85;;;;;;;;;;4972059;28;20026;-77
2023/03/24 04:00:06;;;;;;;5.13;2.70;;;;;;;;;;4971599;28;20400;-78
2023/03/24 04:02:42;;;;;;;6.00;2.40;;;;;;;;;;4972521;28;20069;-77
2023/03/24 04:05:14;;;;;;;5.38;2.90;;;;;;;;;;4972366;28;20027;-76
2023/03/24 04:08:04;;;;;;;3.45;2.58;;;;;;;;;;4972629;28;20057;-76
2023/03/24 04:10:51;;;;;;;6.68;2.65;;;;;;;;;;4971284;28;20026;-76
2023/03/24 04:13:29;;;;;;;6.97;2.95;;;;;;;;;;4971270;28;20069;-75
2023/03/24 04:16:04;;;;;;;9.82;3.35;;;;;;;;;;4972172;28;20596;-76
2023/03/24 04:19:05;;;;;;;4.53;2.63;;;;;;;;;;4970336;28;20106;-77
2023/03/24 04:21:47;;;;;;;4.68;2.70;;;;;;;;;;4911157;29;20084;-76
2023/03/24 04:24:12;;;;;;;;;;;;;;;;;;4978968;28;20355;-77
2023/03/24 04:26:49;;;;;;;5.45;2.53;;;;;;;;;;4970358;28;19910;-77
2023/03/24 04:29:17;;;;;;;2.90;2.40;;;;;;;;;;4970421;28;20027;-76
2023/03/24 04:31:57;;;;;;;3.70;2.42;;;;;;;;;;4970758;28;20065;-77
2023/03/24 04:34:29;;;;;;;5.35;2.75;;;;;;;;;;4972160;28;20476;-76
2023/03/24 04:37:13;;;;;;;7.07;2.67;;;;;;;;;;4971961;28;20031;-77
2023/03/24 04:39:42;;;;;;;3.67;2.45;;;;;;;;;;4979654;28;20041;-77
2023/03/24 04:42:13;;;;;;;3.38;2.15;;;;;;;;;;4990136;28;20022;-77
2023/03/24 04:44:40;;;;;;;5.38;2.30;;;;;;;;;;4991150;28;20030;-77
2023/03/24 04:47:09;;;;;;;3.45;2.42;;;;;;;;;;4992590;28;20475;-78
2023/03/24 04:49:38;;;;;;;3.10;2.17;;;;;;;;;;4989614;28;20038;-77
2023/03/24 04:52:05;;;;;;;2.28;1.73;;;;;;;;;;4991193;28;20054;-76
2023/03/24 04:54:31;;;;;;;5.22;2.13;;;;;;;;;;4989664;28;20026;-76
2023/03/24 04:57:00;;;;;;;4.47;2.22;;;;;;;;;;5006026;28;20045;-76
2023/03/24 04:59:26;;;;;;;5.68;2.30;;;;;;;;;;4990877;28;20041;-76
2023/03/24 05:01:52;;;;;;;4.68;2.42;;;;;;;;;;4991043;28;20041;-76
2023/03/24 05:04:23;;;;;;;3.50;2.22;;;;;;;;;;4989633;28;20030;-76
2023/03/24 05:06:49;;;;;;;3.83;2.55;;;;;;;;;;4989164;28;20113;-77
2023/03/24 05:09:16;;;;;;;10.98;3.03;;;;;;;;;;4989078;28;20117;-76
2023/03/24 05:11:43;;;;;;;4.00;2.15;;;;;;;;;;4990513;28;20037;-76
2023/03/24 05:14:08;;;;;;;3.75;1.88;;;;;;;;;;4989663;28;20391;-77
2023/03/24 05:16:34;;;;;;;4.47;2.42;;;;;;;;;;4988980;28;20046;-77
2023/03/24 05:19:00;;;;;;;3.05;1.83;;;;;;;;;;4990754;28;20505;-77
2023/03/24 05:21:26;;;;;;;5.20;2.15;;;;;;;;;;4990887;28;20109;-77
2023/03/24 05:23:51;;;;;;;3.70;2.45;;;;;;;;;;4991426;28;20101;-76
2023/03/24 05:26:17;;;;;;;3.20;2.40;;;;;;;;;;4990572;28;20129;-77
2023/03/24 05:28:43;;;;;;;4.20;2.03;;;;;;;;;;4991608;28;20443;-77
2023/03/24 05:31:09;;;;;;;3.25;1.95;;;;;;;;;;4992462;28;20101;-76
2023/03/24 05:33:34;;;;;;;3.03;2.03;;;;;;;;;;4991435;28;20105;-77
2023/03/24 05:36:00;;;;;;;4.63;2.00;;;;;;;;;;4990008;28;20034;-77
2023/03/24 05:38:27;;;;;;;3.15;2.00;;;;;;;;;;4990469;28;20022;-77
2023/03/24 05:40:57;;;;;;;4.53;1.90;;;;;;;;;;4971165;28;20035;-77
2023/03/24 05:43:23;;;;;;;4.05;1.67;;;;;;;;;;4983624;28;20654;-77
2023/03/24 05:45:49;;;;;;;7.00;2.13;;;;;;;;;;4986099;28;20533;-77
2023/03/24 05:48:15;;;;;;;9.63;2.90;;;;;;;;;;4986516;28;20077;-79
2023/03/24 05:50:40;;;;;;;3.25;2.28;;;;;;;;;;4990665;28;20034;-79
2023/03/24 05:53:07;;;;;;;6.80;2.90;;;;;;;;;;4988866;28;20123;-77
2023/03/24 05:55:34;;;;;;;3.63;1.90;;;;;;;;;;5007137;28;20034;-77
2023/03/24 05:58:02;;;;;;;8.00;2.55;;;;;;;;;;4981983;28;20050;-74
2023/03/24 06:00:30;;;;;;;3.75;2.40;;;;;;;;;;4989877;28;20057;-76
2023/03/24 06:02:57;;;;;;;8.27;2.72;;;;;;;;;;4975105;28;20037;-74
2023/03/24 06:05:23;;;;;;;6.78;2.47;;;;;;;;;;4991572;28;20022;-81
2023/03/24 06:07:49;;;;;;;4.43;2.45;;;;;;;;;;4994249;28;20022;-80
2023/03/24 06:10:17;;;;;;;3.38;2.28;;;;;;;;;;4978868;28;20490;-77
2023/03/24 06:12:43;;;;;;;7.70;2.42;;;;;;;;;;4988624;28;20103;-81
2023/03/24 06:15:10;;;;;;;8.50;3.15;;;;;;;;;;4990144;28;20058;-82
2023/03/24 06:17:36;;;;;;;2.92;2.00;;;;;;;;;;4987045;28;20112;-79
2023/03/24 06:20:12;;;;;;;4.30;2.40;;;;;;;;;;4984702;28;20082;-78
2023/03/24 06:22:38;;;;;;;5.28;2.25;;;;;;;;;;4979900;28;20136;-79
2023/03/24 06:25:04;;;;;;;5.40;2.90;;;;;;;;;;4985835;28;20054;-76
2023/03/24 06:27:31;;;;;;;9.93;3.95;;;;;;;;;;4990800;28;20044;-79
2023/03/24 06:29:56;;;;;;;5.05;2.53;;;;;;;;;;4986107;28;20042;-79
2023/03/24 06:32:22;;;;;;;4.80;2.20;;;;;;;;;;4984726;28;20031;-76
2023/03/24 06:34:48;;;;;;;6.82;3.00;;;;;;;;;;5003500;28;20064;-78
2023/03/24 06:37:15;;;;;;;6.35;2.60;;;;;;;;;;4991554;28;20368;-79
2023/03/24 06:39:41;;;;;;;4.05;2.28;;;;;;;;;;4985990;28;20182;-84
2023/03/24 06:42:07;;;;;;;4.60;2.28;;;;;;;;;;4989841;28;20394;-76
2023/03/24 06:44:34;;;;;;;4.95;2.40;;;;;;;;;;4986507;28;20087;-77
2023/03/24 06:47:00;;;;;;;3.40;1.98;;;;;;;;;;4978410;28;20133;-74
2023/03/24 06:49:25;;;;;;;3.33;2.03;;;;;;;;;;5004452;28;20031;-76
2023/03/24 06:51:51;;;;;;;6.22;2.22;;;;;;;;;;4981945;28;20030;-76
2023/03/24 06:54:21;;;;;;;4.57;3.20;;;;;;;;;;4986025;28;20038;-80
2023/03/24 06:56:46;;;;;;;5.53;2.58;;;;;;;;;;4979653;28;20053;-78
2023/03/24 06:59:12;;;;;;;4.88;2.65;;;;;;;;;;4983018;28;20529;-79
2023/03/24 07:01:38;;;;;;;6.68;2.72;;;;;;;;;;5000923;28;20037;-76
2023/03/24 07:04:05;;;;;;;6.40;2.78;;;;;;;;;;4987143;28;20498;-77
2023/03/24 07:06:30;;;;;;;5.38;2.60;;;;;;;;;;4988975;28;20109;-78
2023/03/24 07:08:56;;;;;;;3.75;2.47;;;;;;;;;;4988061;28;20034;-79
2023/03/24 07:11:23;;;;;;;3.22;2.38;;;;;;;;;;4991038;28;20065;-76
2023/03/24 07:13:49;;;;;;;4.28;2.38;;;;;;;;;;4989630;28;20494;-78
2023/03/24 07:16:15;;;;;;;5.47;2.50;;;;;;;;;;4973497;28;20053;-76
2023/03/24 07:18:40;;;;;;;7.32;2.67;;;;;;;;;;4987124;28;20054;-78
2023/03/24 07:21:07;;;;;;;8.82;2.70;;;;;;;;;;4984416;28;20466;-80
2023/03/24 07:23:34;;;;;;;4.82;2.30;;;;;;;;;;4978902;28;20070;-79
2023/03/24 07:26:00;;;;;;;5.60;2.42;;;;;;;;;;4975413;28;20132;-75
2023/03/24 07:28:26;;;;;;;4.20;2.20;;;;;;;;;;4988149;28;20612;-76
2023/03/24 07:30:51;;;;;;;4.43;1.92;;;;;;;;;;4987848;28;20084;-77
2023/03/24 07:33:17;;;;;;;3.97;2.25;;;;;;;;;;4986449;28;20041;-78
2023/03/24 07:35:42;;;;;;;6.03;2.20;;;;;;;;;;4985156;28;20054;-77
2023/03/24 07:38:11;;;;;;;4.57;2.20;;;;;;;;;;4987403;28;20147;-76
2023/03/24 07:40:37;;;;;;;5.07;2.33;;;;;;;;;;4987199;28;20045;-76
2023/03/24 07:43:04;;;;;;;4.30;2.50;;;;;;;;;;4986186;28;20050;-77
2023/03/24 07:45:31;;;;;;;3.28;1.75;;;;;;;;;;4988140;28;20125;-78
2023/03/24 07:48:00;;;;;;;4.88;2.38;;;;;;;;;;4991341;28;20035;-76
2023/03/24 07:50:27;;;;;;;7.93;2.25;;;;;;;;;;4986752;28;20068;-76
2023/03/24 07:52:54;;;;;;;10.27;2.65;;;;;;;;;;4987187;28;20038;-76
2023/03/24 07:55:20;;;;;;;7.13;2.20;;;;;;;;;;4980763;28;20128;-75
2023/03/24 07:57:47;;;;;;;5.97;2.03;;;;;;;;;;4983071;28;20065;-78
2023/03/24 08:00:19;;;;;;;3.35;2.55;;;;;;;;;;4980656;28;20140;-77
2023/03/24 08:02:50;;;;;;;4.00;2.20;;;;;;;;;;4992236;28;20144;-77
2023/03/24 08:05:18;;;;;;;;;;;;;;;;;;4989294;28;20040;-79
2023/03/24 08:07:52;;;;;;;3.50;2.00;;;;;;;;;;4996133;28;20370;-75
2023/03/24 08:10:19;;;;;;;2.67;1.90;;;;;;;;;;4990349;28;20325;-78
2023/03/24 08:12:45;;;;;;;3.50;2.25;;;;;;;;;;4982316;28;20040;-76
2023/03/24 08:15:11;;;;;;;3.05;2.10;;;;;;;;;;4989966;28;20437;-78
2023/03/24 08:17:38;;;;;;;2.92;2.35;;;;;;;;;;4985607;28;20034;-77
2023/03/24 08:20:13;;;;;;;3.10;1.92;;;;;;;;;;4979855;28;20132;-77
2023/03/24 08:22:42;;;;;;;2.83;2.00;;;;;;;;;;4970560;28;20057;-78
2023/03/24 08:25:12;;;;;;;2.60;1.98;;;;;;;;;;4983392;28;20042;-79
2023/03/24 08:27:39;;;;;;;3.65;2.05;;;;;;;;;;4974680;28;20108;-78
2023/03/24 08:30:09;;;;;;;6.30;2.10;;;;;;;;;;4980552;28;20042;-77
2023/03/24 08:32:35;;;;;;;5.50;1.98;;;;;;;;;;4982672;28;20039;-74
2023/03/24 08:35:03;;;;;;;6.25;1.98;;;;;;;;;;4996970;28;20145;-77
2023/03/24 08:37:31;;;;;;;3.47;2.45;;;;;;;;;;4984763;28;20443;-80
2023/03/24 08:39:57;;;;;;;3.22;2.22;;;;;;;;;;4983608;28;20038;-76
2023/03/24 08:42:24;;;;;;;6.00;2.80;;;;;;;;;;4985473;28;20093;-78
2023/03/24 08:44:51;;;;;;;4.93;2.75;;;;;;;;;;4964089;28;20371;-76
2023/03/24 08:47:16;;;;;;;4.05;2.42;;;;;;;;;;4981278;28;20042;-76
2023/03/24 08:49:42;;;;;;;11.45;2.45;;;;;;;;;;5006830;28;20023;-77
2023/03/24 08:52:07;;;;;;;13.93;2.90;;;;;;;;;;4999721;28;20045;-76
2023/03/24 08:54:33;;;;;;;4.57;2.30;;;;;;;;;;4988028;28;20041;-75
2023/03/24 08:57:02;;;;;;;3.50;2.20;;;;;;;;;;4974794;28;20038;-75
2023/03/24 08:59:28;;;;;;;8.23;2.90;;;;;;;;;;4987501;28;20030;-78
2023/03/24 09:01:53;;;;;;;5.28;2.45;;;;;;;;;;4987372;28;20359;-74
2023/03/24 09:04:19;;;;;;;9.30;2.10;;;;;;;;;;4991610;28;20039;-77
2023/03/24 09:06:44;;;;;;;3.45;1.90;;;;;;;;;;4986542;28;20030;-78
2023/03/24 09:09:10;;;;;;;5.07;2.20;;;;;;;;;;4980900;28;20026;-77
2023/03/24 09:11:35;;;;;;;4.68;1.95;;;;;;;;;;4978598;28;20813;-78
2023/03/24 09:14:01;;;;;;;6.38;2.80;;;;;;;;;;4982757;28;20026;-77
2023/03/24 09:16:29;;;;;;;3.80;2.42;;;;;;;;;;4984598;28;20064;-77
2023/03/24 09:18:55;;;;;;;3.67;2.03;;;;;;;;;;4996792;28;20364;-79
2023/03/24 09:21:21;;;;;;;6.32;2.50;;;;;;;;;;4983159;28;20026;-76
2023/03/24 09:23:46;;;;;;;3.80;2.30;;;;;;;;;;4983698;28;20035;-81
2023/03/24 09:26:12;;;;;;;7.13;2.20;;;;;;;;;;4981054;28;20402;-80
2023/03/24 09:28:37;;;;;;;7.63;3.17;;;;;;;;;;4975290;28;20030;-80
2023/03/24 09:31:05;;;;;;;2.83;2.00;;;;;;;;;;4977459;28;20748;-78
2023/03/24 09:33:30;;;;;;;4.70;2.28;;;;;;;;;;4980959;28;20724;-80
2023/03/24 09:36:12;;;;;;;3.50;2.00;;;;;;;;;;4979599;28;20053;-80
2023/03/24 09:38:38;;;;;;;5.72;2.40;;;;;;;;;;4982511;28;20041;-79
2023/03/24 09:41:14;;;;;;;3.83;2.25;;;;;;;;;;4986992;28;20030;-78
2023/03/24 09:43:53;;;;;;;5.10;2.10;;;;;;;;;;4985501;28;20106;-79
2023/03/24 09:46:35;;;;;;;5.82;2.33;;;;;;;;;;4987355;28;20262;-77
2023/03/24 09:49:02;;;;;;;2.55;2.30;;;;;;;;;;4982199;28;20043;-78
2023/03/24 09:51:32;;;;;;;5.90;2.15;;;;;;;;;;4985090;28;20097;-78
2023/03/24 09:54:01;;;;;;;3.83;2.00;;;;;;;;;;5003517;28;20117;-75
2023/03/24 09:56:31;;;;;;;5.78;2.30;;;;;;;;;;4987419;28;20081;-79
2023/03/24 09:59:06;;;;;;;4.72;2.50;;;;;;;;;;4992725;28;20101;-80
2023/03/24 10:01:37;;;;;;;4.35;2.30;;;;;;;;;;4998833;28;20029;-80
2023/03/24 10:04:04;;;;;;;6.22;2.10;;;;;;;;;;4990947;28;20034;-79
2023/03/24 10:06:40;;;;;;;7.03;2.50;;;;;;;;;;4991095;28;20037;-80
2023/03/24 10:09:31;;;;;;;6.28;2.20;;;;;;;;;;4966459;28;20487;-79
2023/03/24 10:12:33;;;;;;;7.20;1.80;;;;;;;;;;4990501;28;20044;-78
2023/03/24 10:15:27;;;;;;;2.80;1.58;;;;;;;;;;4992657;28;20498;-81
2023/03/24 10:18:11;;;;;;;4.28;2.08;;;;;;;;;;4986094;28;20046;-79
2023/03/24 10:21:05;;;;;;;3.85;2.50;;;;;;;;;;4991955;28;20046;-79
2023/03/24 10:23:46;;;;;;;5.75;1.88;;;;;;;;;;5015071;28;20372;-80
2023/03/24 10:26:46;;;;;;;5.88;2.42;;;;;;;;;;4996105;28;20033;-80
2023/03/24 10:29:29;;;;;;;2.88;1.65;;;;;;;;;;5003234;28;20034;-81
2023/03/24 10:32:00;;;;;;;3.67;1.73;;;;;;;;;;5000945;28;20108;-81
2023/03/24 10:34:29;;;;;;;3.08;1.27;;;;;;;;;;5000220;28;20061;-78
2023/03/24 10:36:57;;;;;;;6.03;1.30;;;;;;;;;;5000815;28;20038;-79
2023/03/24 10:39:23;;;;;;;6.53;1.50;;;;;;;;;;5004485;28;20076;-78
2023/03/24 10:41:50;;;;;;;1.13;0.95;;;;;;;;;;4994759;28;20034;-80
2023/03/24 10:44:17;;;;;;;6.30;1.50;;;;;;;;;;4994824;28;20577;-82
2023/03/24 10:46:47;;;;;;;8.40;1.80;;;;;;;;;;4985708;28;20046;-79
2023/03/24 10:49:13;;;;;;;2.15;1.55;;;;;;;;;;4989869;28;20027;-80
2023/03/24 10:51:45;;;;;;;4.13;1.33;;;;;;;;;;4984328;28;20097;-78
2023/03/24 10:54:25;;;;;;;2.55;1.30;;;;;;;;;;4987675;28;20042;-78
2023/03/24 10:56:57;;;;;;;1.50;1.40;;;;;;;;;;4983330;28;20495;-78
2023/03/24 10:59:45;;;;;;;5.63;2.25;;;;;;;;;;4985234;28;20459;-79
2023/03/24 11:02:41;;;;;;;1.63;1.30;;;;;;;;;;4994321;28;20030;-78
2023/03/24 11:05:21;;;;;;;4.55;1.48;;;;;;;;;;4977555;28;20039;-78
2023/03/24 11:07:52;;;;;;;3.03;1.40;;;;;;;;;;4963246;28;20046;-81
2023/03/24 11:10:23;;;;;;;2.28;1.48;;;;;;;;;;4990040;28;20030;-80
2023/03/24 11:12:52;;;;;;;3.05;1.60;;;;;;;;;;4969551;28;20038;-80
2023/03/24 11:15:35;;;;;;;2.22;1.60;;;;;;;;;;4983731;28;20030;-78
2023/03/24 11:18:10;;;;;;;3.17;1.55;;;;;;;;;;4985782;28;20089;-80
2023/03/24 11:20:44;;;;;;;3.10;1.63;;;;;;;;;;4991452;28;20033;-80
2023/03/24 11:23:43;;;;;;;4.15;1.65;;;;;;;;;;4985404;28;20101;-78
2023/03/24 11:26:21;;;;;;;2.05;1.60;;;;;;;;;;4991609;28;20471;-78
2023/03/24 11:28:56;;;;;;;4.13;1.70;;;;;;;;;;5000841;28;20141;-81
2023/03/24 11:31:29;;;;;;;4.40;1.92;;;;;;;;;;4998230;28;20034;-77
2023/03/24 11:34:02;;;;;;;2.53;1.65;;;;;;;;;;5002719;28;20028;-78
2023/03/24 11:36:52;;;;;;;3.28;1.60;;;;;;;;;;4979909;28;21363;-78
2023/03/24 11:39:33;;;;;;;7.05;1.77;;;;;;;;;;4975616;28;20038;-82
2023/03/24 11:42:00;;;;;;;;;;;;;;;;;;4981118;28;20393;-79
2023/03/24 11:44:48;;;;;;;2.85;1.77;;;;;;;;;;4972191;28;19922;-80
2023/03/24 11:47:31;;;;;;;2.42;1.83;;;;;;;;;;4988376;28;20137;-81
2023/03/24 11:50:08;;;;;;;4.05;2.53;;;;;;;;;;4992485;28;20038;-80
2023/03/24 11:52:55;;;;;;;5.20;2.28;;;;;;;;;;4988855;28;20486;-79
2023/03/24 11:55:49;;;;;;;6.90;1.98;;;;;;;;;;5007195;28;20050;-79
2023/03/24 11:58:33;;;;;;;6.85;1.83;;;;;;;;;;4987586;28;20022;-78
2023/03/24 12:01:13;;;;;;;1.70;1.42;;;;;;;;;;4997974;28;20391;-78
2023/03/24 12:04:06;;;;;;;3.10;1.65;;;;;;;;;;4989245;28;20642;-80
2023/03/24 12:07:01;;;;;;;2.75;1.88;;;;;;;;;;4984415;28;20041;-80
2023/03/24 12:09:51;;;;;;;8.98;1.90;;;;;;;;;;4993740;28;20038;-83
2023/03/24 12:13:06;;;;;;;6.22;2.03;;;;;;;;;;4993680;28;20617;-82
2023/03/24 12:16:02;;;;;;;1.88;1.60;;;;;;;;;;4988258;28;20033;-80
2023/03/24 12:18:51;;;;;;;4.47;1.92;;;;;;;;;;4987578;28;20463;-85
2023/03/24 12:21:39;;;;;;;2.53;1.70;;;;;;;;;;4986109;28;20029;-80
2023/03/24 12:24:30;;;;;;;2.67;1.92;;;;;;;;;;4993553;28;20049;-82
2023/03/24 12:27:01;;;;;;;4.82;1.45;;;;;;;;;;4999474;28;20042;-82
2023/03/24 12:29:38;;;;;;;4.57;1.75;;;;;;;;;;4986555;28;20042;-81
2023/03/24 12:32:49;;;;;;;4.03;1.80;;;;;;;;;;4992669;28;20041;-81
2023/03/24 12:35:42;;;;;;;2.37;1.70;;;;;;;;;;4973615;28;20030;-83
2023/03/24 12:38:44;;;;;;;3.15;1.75;;;;;;;;;;4984327;28;20311;-82
2023/03/24 12:41:31;;;;;;;2.67;1.30;;;;;;;;;;4986727;28;20033;-81
2023/03/24 12:44:24;;;;;;;6.80;1.60;;;;;;;;;;4975982;28;20104;-84
2023/03/24 12:47:02;;;;;;;2.28;1.55;;;;;;;;;;4959656;28;20133;-80
2023/03/24 12:49:48;;;;;;;9.73;1.67;;;;;;;;;;4958928;28;20129;-80
2023/03/24 12:52:50;;;;;;;3.85;2.00;;;;;;;;;;4971921;28;20626;-77
2023/03/24 12:55:40;;;;;;;4.20;2.25;;;;;;;;;;4983503;28;20038;-79
2023/03/24 12:58:37;;;;;;;3.50;2.05;;;;;;;;;;4970497;28;20085;-84
2023/03/24 13:01:28;;;;;;;1.98;1.70;;;;;;;;;;4977100;28;20120;-80
2023/03/24 13:04:16;;;;;;;5.32;1.70;;;;;;;;;;5002813;28;20022;-82
2023/03/24 13:06:55;;;;;;;5.38;1.52;;;;;;;;;;4987680;28;20030;-82
2023/03/24 13:09:45;;;;;;;3.33;1.70;;;;;;;;;;4988425;28;20034;-81
2023/03/24 13:12:18;;;;;;;10.05;1.98;;;;;;;;;;4984819;28;20030;-82
2023/03/24 13:14:50;;;;;;;1.45;1.35;;;;;;;;;;4985584;28;20037;-80
2023/03/24 13:17:59;;;;;;;3.15;1.83;;;;;;;;;;4988158;28;20026;-82
2023/03/24 13:20:34;;;;;;;1.52;1.42;;;;;;;;;;4969844;28;20042;-80
2023/03/24 13:23:20;;;;;;;1.98;1.27;;;;;;;;;;4981946;28;20030;-79
2023/03/24 13:26:01;;;;;;;2.00;1.33;;;;;;;;;;4980523;28;20034;-80
2023/03/24 13:28:35;;;;;;;3.10;1.63;;;;;;;;;;4980428;28;20098;-81
2023/03/24 13:31:03;;;;;;;3.22;1.40;;;;;;;;;;4962779;28;20275;-82
2023/03/24 13:33:31;;;;;;;3.10;1.38;;;;;;;;;;4987642;28;20034;-83
2023/03/24 13:36:29;;;;;;;2.72;1.60;;;;;;;;;;4987448;28;20113;-80
2023/03/24 13:39:04;;;;;;;1.67;1.40;;;;;;;;;;4980808;28;20045;-82
2023/03/24 13:41:36;;;;;;;1.45;1.35;;;;;;;;;;4986442;28;20166;-80
2023/03/24 13:44:08;;;;;;;1.40;1.17;;;;;;;;;;4984726;28;20042;-80
2023/03/24 13:46:40;;;;;;;3.58;1.33;;;;;;;;;;4977808;28;20065;-83
2023/03/24 13:49:07;;;;;;;;;;;;;;;;;;4989590;28;20037;-81
2023/03/24 13:51:37;;;;;;;3.00;1.67;;;;;;;;;;5002497;28;19910;-83
2023/03/24 13:54:20;;;;;;;1.10;1.00;;;;;;;;;;5004883;28;20141;-83
2023/03/24 13:57:01;;;;;;;4.40;1.25;;;;;;;;;;5010812;28;20050;-81
2023/03/24 13:59:29;;;;;;;1.77;1.33;;;;;;;;;;5012349;28;20022;-79
2023/03/24 14:02:20;;;;;;;6.10;1.55;;;;;;;;;;5009937;28;20049;-80
2023/03/24 14:04:58;;;;;;;1.30;1.10;;;;;;;;;;4995319;28;20057;-80
2023/03/24 14:07:43;;;;;;;2.25;1.30;;;;;;;;;;4995627;28;20038;-81
2023/03/24 14:10:16;;;;;;;1.30;1.15;;;;;;;;;;4992665;28;20084;-81
2023/03/24 14:12:56;;;;;;;2.58;1.05;;;;;;;;;;4988119;28;20041;-78
2023/03/24 14:15:33;;;;;;;3.78;1.40;;;;;;;;;;4990334;28;20087;-80
2023/03/24 14:18:20;;;;;;;2.97;1.35;;;;;;;;;;4989310;28;20084;-82
2023/03/24 14:20:56;;;;;;;1.23;0.90;;;;;;;;;;4987816;28;20046;-81
2023/03/24 14:23:38;;;;;;;1.70;0.90;;;;;;;;;;5005052;28;20053;-79
2023/03/24 14:26:07;;;;;;;1.25;0.88;;;;;;;;;;4999768;28;20037;-81
2023/03/24 14:28:46;;;;;;;4.68;1.00;;;;;;;;;;4984167;28;20045;-81
2023/03/24 14:31:14;;;;;;;1.15;0.95;;;;;;;;;;4993337;28;20026;-81
2023/03/24 14:34:20;;;;;;;3.28;0.90;;;;;;;;;;4993022;28;20129;-82
2023/03/24 14:36:56;;;;;;;1.33;0.88;;;;;;;;;;4993392;28;20045;-82
2023/03/24 14:39:49;;;;;;;3.30;1.17;;;;;;;;;;4990017;28;20038;-83
2023/03/24 14:42:33;;;;;;;2.10;0.63;;;;;;;;;;4976983;28;20039;-81
2023/03/24 14:45:00;;;;;;;1.60;0.80;;;;;;;;;;4984984;28;20089;-82
2023/03/24 14:47:37;;;;;;;1.52;0.70;;;;;;;;;;4994507;28;20026;-83
2023/03/24 14:50:18;;;;;;;1.98;0.80;;;;;;;;;;4993437;28;20471;-81
2023/03/24 14:52:51;;;;;;;0.88;0.80;;;;;;;;;;4994728;28;20026;-80
2023/03/24 14:55:18;;;;;;;1.23;0.88;;;;;;;;;;4995355;28;20042;-81
2023/03/24 14:57:52;;;;;;;0.75;0.60;;;;;;;;;;4989837;28;20053;-82
2023/03/24 15:00:31;;;;;;;1.75;0.95;;;;;;;;;;4995449;28;20053;-84
2023/03/24 15:03:37;;;;;;;0.80;0.75;;;;;;;;;;4991871;28;20110;-81
2023/03/24 15:06:23;;;;;;;2.33;0.90;;;;;;;;;;4979808;28;20026;-83
2023/03/24 15:08:54;;;;;;;1.00;0.70;;;;;;;;;;4996726;28;20034;-82
2023/03/24 15:11:24;;;;;;;0.90;0.90;;;;;;;;;;4993707;28;20066;-81
2023/03/24 15:13:52;;;;;;;1.05;0.95;;;;;;;;;;4992364;28;20362;-82
2023/03/24 15:16:21;;;;;;;0.93;0.80;;;;;;;;;;4992572;28;20065;-81
2023/03/24 15:19:06;;;;;;;1.10;0.70;;;;;;;;;;4994083;28;20053;-81
2023/03/24 15:21:46;;;;;;;1.85;0.82;;;;;;;;;;4995373;28;20041;-82
2023/03/24 15:24:26;;;;;;;1.38;1.10;;;;;;;;;;4979134;28;20030;-82